createdAt,value
2019-03-06T00:01:15.980Z,15.03
2019-03-06T00:03:45.793Z,11.87
2019-03-06T00:06:16.950Z,15.57
2019-03-06T00:08:47.076Z,13.67
2019-03-06T00:11:17.424Z,21.33
2019-03-06T00:13:47.158Z,11.97
2019-03-06T00:16:16.969Z,17.33
2019-03-06T00:18:46.701Z,21.60
2019-03-06T00:21:16.508Z,23.67
2019-03-06T00:23:46.316Z,10.70
2019-03-06T00:26:16.026Z,14.17
2019-03-06T00:28:45.768Z,13.37
2019-03-06T00:31:15.512Z,11.80
2019-03-06T00:33:45.196Z,8.20
2019-03-06T00:36:16.572Z,14.87
2019-03-06T00:38:46.196Z,16.03
2019-03-06T00:41:20.596Z,8.30
2019-03-06T00:43:50.303Z,16.13
2019-03-06T00:46:20.070Z,12.37
2019-03-06T00:48:49.740Z,18.40
2019-03-06T00:51:19.442Z,12.23
2019-03-06T00:53:49.354Z,21.07
2019-03-06T00:56:19.297Z,17.30
2019-03-06T00:58:48.952Z,17.53
2019-03-06T01:01:18.714Z,11.70
2019-03-06T01:03:48.678Z,13.60
2019-03-06T01:06:18.543Z,12.03
2019-03-06T01:08:48.588Z,9.87
2019-03-06T01:11:18.450Z,8.80
2019-03-06T01:13:48.192Z,14.87
2019-03-06T01:16:17.974Z,13.10
2019-03-06T01:18:47.836Z,22.80
2019-03-06T01:21:17.683Z,18.33
2019-03-06T01:23:47.385Z,13.30
2019-03-06T01:26:17.128Z,14.30
2019-03-06T01:28:46.954Z,11.00
2019-03-06T01:31:16.752Z,21.77
2019-03-06T01:33:57.078Z,14.07
2019-03-06T01:36:34.630Z,14.07
2019-03-06T01:39:16.298Z,22.73
2019-03-06T01:41:53.584Z,14.23
2019-03-06T01:44:24.982Z,15.07
2019-03-06T01:46:54.730Z,12.83
2019-03-06T01:49:24.739Z,9.67
2019-03-06T01:51:54.430Z,13.17
2019-03-06T01:54:24.102Z,21.37
2019-03-06T01:56:53.798Z,13.27
2019-03-06T01:59:23.442Z,11.20
2019-03-06T02:01:53.145Z,17.13
2019-03-06T02:04:23.103Z,16.60
2019-03-06T02:06:52.808Z,13.70
2019-03-06T02:09:23.692Z,13.90
2019-03-06T02:11:53.397Z,14.80
2019-03-06T02:14:23.140Z,12.30
2019-03-06T02:16:52.960Z,14.90
2019-03-06T02:19:22.695Z,14.40
2019-03-06T02:21:52.438Z,14.83
2019-03-06T02:24:22.378Z,14.10
2019-03-06T02:26:52.186Z,18.07
2019-03-06T02:29:22.000Z,15.00
2019-03-06T02:31:51.819Z,15.93
2019-03-06T02:34:21.521Z,12.07
2019-03-06T02:36:51.508Z,14.77
2019-03-06T02:39:21.202Z,16.40
2019-03-06T02:41:50.832Z,15.47
2019-03-06T02:44:20.869Z,19.27
2019-03-06T02:46:53.326Z,20.83
2019-03-06T02:49:23.015Z,19.70
2019-03-06T02:51:52.882Z,18.23
2019-03-06T02:54:22.730Z,17.40
2019-03-06T02:56:52.562Z,20.47
2019-03-06T02:59:24.017Z,17.23
2019-03-06T03:01:58.386Z,20.20
2019-03-06T03:04:29.797Z,13.80
2019-03-06T03:07:01.190Z,19.13
2019-03-06T03:09:31.421Z,17.83
2019-03-06T03:12:01.169Z,18.80
2019-03-06T03:14:30.922Z,20.60
2019-03-06T03:17:00.623Z,15.40
2019-03-06T03:19:30.446Z,18.43
2019-03-06T03:22:00.148Z,20.70
2019-03-06T03:24:29.981Z,25.47
2019-03-06T03:26:59.746Z,13.80
2019-03-06T03:29:29.525Z,16.80
2019-03-06T03:31:59.873Z,18.57
2019-03-06T03:34:29.742Z,15.93
2019-03-06T03:36:59.706Z,13.10
2019-03-06T03:39:29.361Z,16.47
2019-03-06T03:41:59.699Z,22.27
2019-03-06T03:44:29.389Z,17.20
2019-03-06T03:46:59.069Z,16.30
2019-03-06T03:49:29.109Z,16.40
2019-03-06T03:51:58.984Z,18.53
2019-03-06T03:54:28.794Z,18.63
2019-03-06T03:56:58.472Z,16.73
2019-03-06T04:00:05.139Z,17.40
2019-03-06T04:02:34.966Z,16.00
2019-03-06T04:05:06.953Z,15.03
2019-03-06T04:07:36.764Z,12.43
2019-03-06T04:13:49.333Z,15.23
2019-03-06T04:16:20.389Z,15.87
2019-03-06T04:18:51.202Z,23.67
2019-03-06T04:21:22.280Z,18.80
2019-03-06T04:23:53.023Z,18.87
2019-03-06T04:26:23.817Z,19.37
2019-03-06T04:28:54.551Z,16.60
2019-03-06T04:31:25.135Z,18.03
2019-03-06T04:33:56.142Z,17.33
2019-03-06T04:36:26.854Z,24.60
2019-03-06T04:38:57.824Z,13.83
2019-03-06T04:41:29.164Z,16.10
2019-03-06T04:43:59.964Z,12.27
2019-03-06T04:46:30.546Z,17.00
2019-03-06T04:49:01.128Z,16.43
2019-03-06T04:51:31.839Z,20.40
2019-03-06T04:54:02.359Z,17.70
2019-03-06T04:56:32.938Z,16.50
2019-03-06T04:59:03.901Z,19.67
2019-03-06T05:01:34.787Z,14.93
2019-03-06T05:04:05.494Z,14.17
2019-03-06T05:06:36.240Z,17.10
2019-03-06T05:09:07.501Z,20.40
2019-03-06T05:11:38.188Z,21.13
2019-03-06T05:14:08.987Z,18.47
2019-03-06T05:16:44.413Z,16.30
2019-03-06T05:19:15.050Z,18.00
2019-03-06T05:21:45.830Z,18.27
2019-03-06T05:24:16.406Z,50.47
2019-03-06T05:26:47.001Z,147.13
2019-03-06T05:29:17.709Z,173.87
2019-03-06T05:32:07.692Z,111.17
2019-03-06T05:34:38.403Z,90.77
2019-03-06T05:37:28.656Z,96.37
2019-03-06T05:39:59.415Z,76.90
2019-03-06T05:42:30.014Z,66.30
2019-03-06T05:45:00.980Z,65.60
2019-03-06T05:47:31.576Z,52.60
2019-03-06T05:50:01.970Z,57.23
2019-03-06T05:52:32.954Z,49.47
2019-03-06T05:55:03.939Z,45.37
2019-03-06T05:57:34.751Z,49.00
2019-03-06T06:00:10.961Z,47.30
2019-03-06T06:02:41.787Z,39.60
2019-03-06T06:05:13.822Z,41.53
2019-03-06T06:07:44.443Z,36.50
2019-03-06T06:10:16.207Z,41.90
2019-03-06T06:12:47.294Z,37.53
2019-03-06T06:15:18.044Z,33.13
2019-03-06T06:17:48.737Z,34.47
2019-03-06T06:20:19.157Z,32.33
2019-03-06T06:23:00.660Z,32.50
2019-03-06T06:25:32.893Z,28.60
2019-03-06T06:28:03.619Z,31.77
2019-03-06T06:30:34.565Z,27.90
2019-03-06T06:33:05.220Z,31.70
2019-03-06T06:35:35.672Z,29.73
2019-03-06T06:38:06.562Z,25.70
2019-03-06T06:40:37.304Z,33.10
2019-03-06T06:43:08.379Z,31.50
2019-03-06T06:45:39.082Z,32.23
2019-03-06T06:48:11.910Z,30.17
2019-03-06T06:51:02.569Z,27.93
2019-03-06T06:53:45.116Z,32.83
2019-03-06T06:56:36.686Z,29.57
2019-03-06T06:59:19.244Z,31.87
2019-03-06T07:02:20.037Z,32.83
2019-03-06T07:05:39.724Z,28.90
2019-03-06T07:08:18.438Z,32.93
2019-03-06T07:10:50.813Z,26.43
2019-03-06T07:13:23.428Z,35.63
2019-03-06T07:16:11.223Z,29.70
2019-03-06T07:18:59.158Z,33.60
2019-03-06T07:21:34.528Z,34.67
2019-03-06T07:24:16.190Z,33.33
2019-03-06T07:26:51.817Z,36.50
2019-03-06T07:29:26.780Z,42.27
2019-03-06T07:32:15.532Z,37.27
2019-03-06T07:35:29.681Z,36.83
2019-03-06T07:38:04.994Z,32.93
2019-03-06T07:40:37.499Z,40.53
2019-03-06T07:43:09.870Z,35.20
2019-03-06T07:45:48.384Z,35.17
2019-03-06T07:48:39.103Z,45.13
2019-03-06T07:51:11.359Z,37.43
2019-03-06T07:54:03.663Z,36.77
2019-03-06T07:56:48.583Z,32.60
2019-03-06T07:59:19.365Z,32.10
2019-03-06T08:02:01.973Z,32.30
2019-03-06T08:04:32.713Z,37.93
2019-03-06T08:07:04.795Z,34.23
2019-03-06T08:09:35.363Z,35.57
2019-03-06T08:12:07.960Z,33.33
2019-03-06T08:14:58.601Z,33.80
2019-03-06T08:17:37.030Z,32.53
2019-03-06T08:20:26.399Z,37.27
2019-03-06T08:23:17.208Z,29.53
2019-03-06T08:25:49.891Z,39.77
2019-03-06T08:28:21.079Z,32.00
2019-03-06T08:31:02.517Z,35.07
2019-03-06T08:33:33.200Z,31.70
2019-03-06T08:36:03.958Z,37.77
2019-03-06T08:38:34.756Z,30.47
2019-03-06T08:41:06.077Z,36.43
2019-03-06T08:43:38.128Z,29.63
2019-03-06T08:46:16.851Z,40.87
2019-03-06T08:48:55.307Z,33.80
2019-03-06T08:51:33.678Z,38.10
2019-03-06T08:54:18.130Z,35.10
2019-03-06T08:57:09.145Z,32.73
2019-03-06T08:59:41.511Z,26.77
2019-03-06T09:02:30.271Z,31.37
2019-03-06T09:05:08.660Z,32.47
2019-03-06T09:07:47.098Z,41.43
2019-03-06T09:10:19.268Z,25.53
2019-03-06T09:12:52.196Z,30.97
2019-03-06T09:15:30.564Z,26.90
2019-03-06T09:18:11.739Z,28.67
2019-03-06T09:21:00.090Z,32.00
2019-03-06T09:23:32.464Z,25.37
2019-03-06T09:26:05.041Z,26.47
2019-03-06T09:28:38.028Z,25.73
2019-03-06T09:31:22.886Z,24.33
2019-03-06T09:34:11.848Z,24.57
2019-03-06T09:36:53.434Z,24.00
2019-03-06T09:39:31.800Z,26.10
2019-03-06T09:42:19.478Z,23.83
2019-03-06T09:44:51.854Z,27.13
2019-03-06T09:47:24.443Z,27.10
2019-03-06T09:50:09.090Z,28.87
2019-03-06T09:52:57.638Z,17.57
2019-03-06T09:55:30.115Z,23.60
2019-03-06T09:58:08.494Z,21.10
2019-03-06T10:00:41.008Z,28.03
2019-03-06T10:03:22.800Z,20.07
2019-03-06T10:05:55.375Z,24.63
2019-03-06T10:08:27.896Z,26.97
2019-03-06T10:11:03.595Z,22.03
2019-03-06T10:13:41.711Z,21.53
2019-03-06T10:16:18.684Z,23.23
2019-03-06T10:18:51.260Z,18.40
2019-03-06T10:21:23.192Z,19.50
2019-03-06T10:23:54.894Z,15.07
2019-03-06T10:26:25.780Z,18.70
2019-03-06T10:28:56.684Z,17.17
2019-03-06T10:31:27.195Z,23.10
2019-03-06T10:33:57.870Z,15.43
2019-03-06T10:36:29.306Z,19.17
2019-03-06T10:38:59.867Z,17.30
2019-03-06T10:41:31.196Z,13.53
2019-03-06T10:44:01.937Z,12.87
2019-03-06T10:46:32.468Z,13.00
2019-03-06T10:49:03.549Z,15.83
2019-03-06T10:51:34.264Z,12.63
2019-03-06T10:54:05.540Z,11.63
2019-03-06T10:56:36.503Z,11.03
2019-03-06T10:59:07.623Z,22.37
2019-03-06T11:01:38.690Z,14.13
2019-03-06T11:04:17.677Z,12.13
2019-03-06T11:06:48.579Z,20.03
2019-03-06T11:09:19.387Z,14.50
2019-03-06T11:11:50.636Z,12.07
2019-03-06T11:14:21.551Z,13.30
2019-03-06T11:16:52.246Z,12.47
2019-03-06T11:19:23.019Z,11.70
2019-03-06T11:21:53.836Z,12.80
2019-03-06T11:24:24.894Z,15.40
2019-03-06T11:26:55.952Z,12.80
2019-03-06T11:29:26.798Z,12.60
2019-03-06T11:32:00.906Z,14.90
2019-03-06T11:34:38.169Z,12.53
2019-03-06T11:37:09.254Z,14.93
2019-03-06T11:39:40.139Z,12.33
2019-03-06T11:42:11.218Z,17.47
2019-03-06T11:44:42.091Z,14.83
2019-03-06T11:47:12.786Z,16.53
2019-03-06T11:49:43.521Z,21.53
2019-03-06T11:52:16.270Z,16.70
2019-03-06T11:55:10.361Z,16.33
2019-03-06T11:57:33.290Z,15.90
2019-03-06T12:00:05.150Z,25.00
2019-03-06T12:02:36.021Z,14.70
2019-03-06T12:05:14.266Z,17.03
2019-03-06T12:07:45.561Z,22.10
2019-03-06T12:10:16.225Z,19.20
2019-03-06T12:12:47.273Z,19.40
2019-03-06T12:15:18.158Z,23.73
2019-03-06T12:17:50.936Z,20.60
2019-03-06T12:20:22.028Z,19.57
2019-03-06T12:22:53.191Z,20.40
2019-03-06T12:25:23.894Z,25.10
2019-03-06T12:27:54.304Z,22.93
2019-03-06T12:30:25.228Z,19.70
2019-03-06T12:32:56.207Z,23.43
2019-03-06T12:35:27.364Z,22.27
2019-03-06T12:37:58.703Z,25.70
2019-03-06T12:40:30.567Z,21.47
2019-03-06T12:43:01.202Z,23.60
2019-03-06T12:45:32.059Z,30.60
2019-03-06T12:48:12.010Z,22.43
2019-03-06T12:50:42.827Z,30.70
2019-03-06T12:53:13.610Z,31.23
2019-03-06T12:55:44.693Z,24.43
2019-03-06T12:58:15.402Z,29.30
2019-03-06T13:00:46.166Z,22.07
2019-03-06T13:03:18.281Z,20.93
2019-03-06T13:05:49.521Z,28.87
2019-03-06T13:08:20.136Z,23.40
2019-03-06T13:10:51.262Z,25.17
2019-03-06T13:13:21.894Z,28.80
2019-03-06T13:15:53.140Z,24.53
2019-03-06T13:18:23.798Z,23.50
2019-03-06T13:20:54.470Z,26.83
2019-03-06T13:23:25.352Z,30.77
2019-03-06T13:25:56.233Z,23.00
2019-03-06T13:28:27.294Z,27.63
2019-03-06T13:30:58.335Z,26.97
2019-03-06T13:33:30.972Z,25.73
2019-03-06T13:36:01.953Z,26.83
2019-03-06T13:38:32.722Z,28.70
2019-03-06T13:41:03.583Z,28.17
2019-03-06T13:43:34.086Z,27.03
2019-03-06T13:46:04.861Z,27.50
2019-03-06T13:48:35.820Z,28.47
2019-03-06T13:51:06.921Z,30.67
2019-03-06T13:53:37.670Z,24.00
2019-03-06T13:56:08.637Z,28.50
2019-03-06T13:58:39.558Z,28.57
2019-03-06T14:01:11.576Z,32.27
2019-03-06T14:03:42.586Z,27.00
2019-03-06T14:06:13.423Z,30.93
2019-03-06T14:08:44.240Z,25.37
2019-03-06T14:11:14.849Z,27.33
2019-03-06T14:13:45.594Z,23.27
2019-03-06T14:16:16.726Z,24.87
2019-03-06T14:18:47.593Z,25.17
2019-03-06T14:21:18.502Z,25.03
2019-03-06T14:23:49.017Z,24.13
2019-03-06T14:26:19.898Z,23.37
2019-03-06T14:28:50.628Z,21.93
2019-03-06T14:31:23.156Z,21.80
2019-03-06T14:33:53.862Z,30.80
2019-03-06T14:36:24.755Z,20.07
2019-03-06T14:38:55.362Z,24.93
2019-03-06T14:41:26.355Z,24.30
2019-03-06T14:43:57.107Z,25.33
2019-03-06T14:46:27.692Z,25.43
2019-03-06T14:48:58.560Z,24.27
2019-03-06T14:51:29.163Z,25.87
2019-03-06T14:53:59.894Z,16.10
2019-03-06T14:56:30.821Z,23.27
2019-03-06T14:59:01.570Z,22.13
2019-03-06T15:01:32.559Z,20.60
2019-03-06T15:04:03.241Z,18.63
2019-03-06T15:06:34.388Z,26.00
2019-03-06T15:09:07.946Z,19.97
2019-03-06T15:11:38.664Z,19.50
2019-03-06T15:14:09.359Z,18.73
2019-03-06T15:16:40.036Z,25.43
2019-03-06T15:19:10.663Z,17.73
2019-03-06T15:21:41.545Z,22.30
2019-03-06T15:24:12.236Z,16.47
2019-03-06T15:26:43.821Z,16.40
2019-03-06T15:29:14.468Z,21.87
2019-03-06T15:31:45.425Z,15.57
2019-03-06T15:34:16.429Z,26.13
2019-03-06T15:36:47.187Z,15.67
2019-03-06T15:39:29.158Z,21.23
2019-03-06T15:42:01.166Z,17.10
2019-03-06T15:44:32.680Z,16.27
2019-03-06T15:47:03.566Z,19.77
2019-03-06T15:49:34.366Z,22.80
2019-03-06T15:52:07.658Z,16.87
2019-03-06T15:54:38.323Z,13.27
2019-03-06T15:57:10.130Z,18.57
2019-03-06T15:59:41.093Z,20.37
2019-03-06T16:02:12.204Z,14.97
2019-03-06T16:04:42.976Z,16.70
2019-03-06T16:07:13.659Z,21.43
2019-03-06T16:09:44.472Z,15.80
2019-03-06T16:12:15.537Z,14.40
2019-03-06T16:14:48.942Z,17.20
2019-03-06T16:17:21.219Z,13.30
2019-03-06T16:19:51.877Z,18.13
2019-03-06T16:22:22.651Z,17.07
2019-03-06T16:24:53.443Z,20.80
2019-03-06T16:27:24.528Z,22.37
2019-03-06T16:29:55.817Z,23.00
2019-03-06T16:32:28.030Z,13.90
2019-03-06T16:34:58.827Z,16.53
2019-03-06T16:37:29.479Z,17.83
2019-03-06T16:40:00.333Z,14.70
2019-03-06T16:42:31.032Z,17.17
2019-03-06T16:45:01.844Z,17.30
2019-03-06T16:47:33.171Z,14.00
2019-03-06T16:50:13.505Z,19.63
2019-03-06T16:52:37.435Z,20.47
2019-03-06T16:55:10.704Z,16.97
2019-03-06T16:57:41.648Z,17.07
2019-03-06T17:00:26.456Z,18.00
2019-03-06T17:02:58.373Z,14.40
2019-03-06T17:05:30.795Z,17.53
2019-03-06T17:08:02.441Z,12.10
2019-03-06T17:10:34.182Z,15.13
2019-03-06T17:13:05.230Z,21.50
2019-03-06T17:15:36.215Z,17.70
2019-03-06T17:18:07.307Z,16.70
2019-03-06T17:20:38.565Z,11.73
2019-03-06T17:23:09.649Z,16.80
2019-03-06T17:25:40.564Z,14.03
2019-03-06T17:28:11.359Z,14.87
2019-03-06T17:30:42.716Z,21.13
2019-03-06T17:33:17.692Z,14.60
2019-03-06T17:35:48.381Z,13.87
2019-03-06T17:38:19.572Z,15.90
2019-03-06T17:40:50.312Z,16.13
2019-03-06T17:43:21.345Z,15.80
2019-03-06T17:45:52.131Z,13.27
2019-03-06T17:48:22.895Z,11.80
2019-03-06T17:50:53.528Z,12.63
2019-03-06T17:53:24.503Z,10.10
2019-03-06T17:55:55.302Z,14.47
2019-03-06T17:58:26.567Z,13.80
2019-03-06T18:00:59.256Z,11.07
2019-03-06T18:03:31.569Z,15.17
2019-03-06T18:06:02.320Z,17.17
2019-03-06T18:08:33.797Z,14.60
2019-03-06T18:11:04.945Z,12.93
2019-03-06T18:13:36.011Z,12.80
2019-03-06T18:16:06.792Z,9.33
2019-03-06T18:18:37.653Z,16.47
2019-03-06T18:21:08.662Z,11.90
2019-03-06T18:23:39.631Z,12.53
2019-03-06T18:26:10.536Z,12.07
2019-03-06T18:28:41.177Z,18.23
2019-03-06T18:31:12.047Z,14.40
2019-03-06T18:33:42.692Z,13.20
2019-03-06T18:36:13.794Z,11.83
2019-03-06T18:38:44.955Z,16.20
2019-03-06T18:41:15.850Z,14.97
2019-03-06T18:43:46.695Z,15.03
2019-03-06T18:46:17.669Z,11.00
2019-03-06T18:48:48.469Z,13.83
2019-03-06T18:51:19.008Z,11.47
2019-03-06T18:53:49.976Z,11.00
2019-03-06T18:56:20.709Z,15.00
2019-03-06T18:58:51.357Z,14.03
2019-03-06T19:01:22.162Z,13.10
2019-03-06T19:03:53.064Z,11.60
2019-03-06T19:06:24.049Z,13.17
2019-03-06T19:08:54.624Z,13.03
2019-03-06T19:11:25.884Z,13.17
2019-03-06T19:13:56.981Z,13.90
2019-03-06T19:16:27.889Z,18.07
2019-03-06T19:18:58.729Z,18.67
2019-03-06T19:21:29.610Z,12.20
2019-03-06T19:24:00.387Z,12.70
2019-03-06T19:26:31.139Z,13.57
2019-03-06T19:29:02.151Z,12.73
2019-03-06T19:31:32.724Z,13.33
2019-03-06T19:34:03.835Z,16.90
2019-03-06T19:36:34.727Z,17.90
2019-03-06T19:39:07.106Z,11.87
2019-03-06T19:41:37.907Z,14.60
2019-03-06T19:44:08.789Z,14.83
2019-03-06T19:46:39.808Z,10.30
2019-03-06T19:49:10.547Z,11.07
2019-03-06T19:51:51.099Z,12.00
2019-03-06T19:54:14.114Z,15.40
2019-03-06T19:56:45.361Z,12.93
2019-03-06T19:59:16.070Z,14.10
2019-03-06T20:01:46.939Z,15.27
2019-03-06T20:04:17.636Z,11.80
2019-03-06T20:06:48.830Z,13.33
2019-03-06T20:09:26.815Z,14.73
2019-03-06T20:11:57.714Z,15.07
2019-03-06T20:14:28.466Z,88.37
2019-03-06T20:16:59.438Z,184.70
2019-03-06T20:19:30.368Z,83.93
2019-03-06T20:22:02.139Z,60.53
2019-03-06T20:24:33.285Z,44.37
2019-03-06T20:27:03.961Z,45.67
2019-03-06T20:29:35.159Z,37.03
2019-03-06T20:32:05.979Z,29.03
2019-03-06T20:34:36.735Z,26.17
2019-03-06T20:37:07.430Z,21.93
2019-03-06T20:39:38.294Z,23.13
2019-03-06T20:42:08.964Z,19.33
2019-03-06T20:44:41.236Z,21.40
2019-03-06T20:47:12.283Z,19.97
2019-03-06T20:49:43.043Z,17.50
2019-03-06T20:52:13.769Z,22.83
2019-03-06T20:54:44.226Z,20.77
2019-03-06T20:57:14.797Z,15.67
2019-03-06T20:59:46.143Z,13.00
2019-03-06T21:02:17.560Z,18.50
2019-03-06T21:04:48.448Z,17.90
2019-03-06T21:07:19.214Z,16.37
2019-03-06T21:09:50.114Z,12.33
2019-03-06T21:12:21.174Z,12.73
2019-03-06T21:14:52.158Z,13.50
2019-03-06T21:17:22.945Z,21.53
2019-03-06T21:19:54.174Z,16.60
2019-03-06T21:22:24.931Z,13.73
2019-03-06T21:24:56.034Z,18.13
2019-03-06T21:27:27.205Z,13.10
2019-03-06T21:29:57.863Z,15.50
2019-03-06T21:32:29.162Z,13.40
2019-03-06T21:35:00.300Z,15.47
2019-03-06T21:37:30.994Z,14.87
2019-03-06T21:40:03.175Z,16.83
2019-03-06T21:42:34.669Z,17.40
2019-03-06T21:45:07.201Z,20.40
2019-03-06T21:47:38.447Z,14.07
2019-03-06T21:50:12.045Z,17.83
2019-03-06T21:52:42.959Z,14.13
2019-03-06T21:55:14.591Z,18.33
2019-03-06T21:57:46.273Z,17.10
2019-03-06T22:00:19.474Z,17.33
2019-03-06T22:02:50.203Z,18.80
2019-03-06T22:05:20.895Z,18.47
2019-03-06T22:07:52.246Z,15.13
2019-03-06T22:10:23.346Z,16.70
2019-03-06T22:12:54.286Z,16.60
2019-03-06T22:15:25.034Z,14.87
2019-03-06T22:17:56.215Z,17.00
2019-03-06T22:20:27.085Z,19.47
2019-03-06T22:22:57.684Z,18.60
2019-03-06T22:25:28.344Z,19.70
2019-03-06T22:27:59.059Z,19.73
2019-03-06T22:30:29.793Z,15.17
2019-03-06T22:33:00.774Z,17.80
2019-03-06T22:35:31.907Z,17.13
2019-03-06T22:38:03.272Z,25.43
2019-03-06T22:40:34.172Z,23.63
2019-03-06T22:43:05.235Z,15.70
2019-03-06T22:45:36.749Z,23.33
2019-03-06T22:48:07.437Z,19.60
2019-03-06T22:50:38.543Z,17.10
2019-03-06T22:53:09.319Z,22.33
2019-03-06T22:55:40.339Z,23.83
2019-03-06T22:58:11.094Z,15.43
2019-03-06T23:00:46.078Z,21.17
2019-03-06T23:03:17.614Z,19.17
2019-03-06T23:05:48.114Z,23.27
2019-03-06T23:08:18.922Z,18.67
2019-03-06T23:10:49.669Z,19.43
2019-03-06T23:13:20.451Z,15.80
2019-03-06T23:15:50.919Z,15.43
2019-03-06T23:18:21.628Z,18.23
2019-03-06T23:20:52.045Z,20.90
2019-03-06T23:23:22.908Z,19.73
2019-03-06T23:25:53.600Z,20.60
2019-03-06T23:28:24.323Z,21.97
2019-03-06T23:30:54.944Z,21.10
2019-03-06T23:33:25.677Z,21.37
2019-03-06T23:35:56.334Z,21.73
2019-03-06T23:38:27.140Z,17.63
2019-03-06T23:40:58.147Z,18.23
2019-03-06T23:43:29.493Z,20.27
2019-03-06T23:46:00.416Z,20.47
2019-03-06T23:48:30.820Z,27.73
2019-03-06T23:51:03.394Z,18.50
2019-03-06T23:53:39.252Z,21.00
2019-03-06T23:56:10.106Z,18.67
2019-03-06T23:58:41.063Z,19.77
